createdAt,value
2023-04-11T00:00:15.481Z,100075.84
2023-04-11T00:02:43.025Z,100112.91
2023-04-11T00:05:10.770Z,100135.00
2023-04-11T00:07:38.158Z,100160.59
2023-04-11T00:10:07.316Z,100186.19
2023-04-11T00:12:34.672Z,100210.91
2023-04-11T00:15:02.542Z,100239.16
2023-04-11T00:17:31.683Z,100252.44
2023-04-11T00:20:01.827Z,100250.66
2023-04-11T00:22:30.702Z,100258.59
2023-04-11T00:24:58.088Z,100252.41
2023-04-11T00:27:25.108Z,100241.81
2023-04-11T00:29:53.028Z,100232.09
2023-04-11T00:32:21.464Z,100222.38
2023-04-11T00:34:48.813Z,100200.31
2023-04-11T00:37:17.847Z,100175.59
2023-04-11T00:39:45.341Z,100175.59
2023-04-11T00:42:12.768Z,100166.78
2023-04-11T00:44:40.419Z,100152.63
2023-04-11T00:47:09.131Z,100142.06
2023-04-11T00:49:37.087Z,100117.34
2023-04-11T00:52:05.124Z,100096.16
2023-04-11T00:54:32.800Z,100077.63
2023-04-11T00:57:04.465Z,100059.09
2023-04-11T00:59:33.192Z,100048.50
2023-04-11T01:02:01.828Z,100053.78
2023-04-11T01:04:32.911Z,100062.59
2023-04-11T01:07:06.373Z,100065.25
2023-04-11T01:09:35.500Z,100074.94
2023-04-11T01:12:04.056Z,100073.16
2023-04-11T01:14:31.186Z,100090.81
2023-04-11T01:17:02.131Z,100100.50
2023-04-11T01:19:30.024Z,100120.78
2023-04-11T01:21:58.635Z,100127.78
2023-04-11T01:24:26.040Z,100151.56
2023-04-11T01:26:53.530Z,100170.97
2023-04-11T01:29:20.737Z,100185.06
2023-04-11T01:31:48.129Z,100203.59
2023-04-11T01:34:17.176Z,100190.34
2023-04-11T01:36:44.869Z,100206.19
2023-04-11T01:39:12.339Z,100230.91
2023-04-11T01:41:41.949Z,100223.91
2023-04-11T01:44:09.232Z,100192.16
2023-04-11T01:46:36.807Z,100202.72
2023-04-11T01:49:04.001Z,100212.41
2023-04-11T01:51:31.037Z,100216.72
2023-04-11T01:53:58.414Z,100227.31
2023-04-11T01:56:25.488Z,100246.75
2023-04-11T01:58:52.611Z,100231.78
2023-04-11T02:01:20.724Z,100223.91
2023-04-11T02:03:48.214Z,100217.69
2023-04-11T02:06:16.860Z,100206.16
2023-04-11T02:08:44.593Z,100216.75
2023-04-11T02:11:12.035Z,100237.97
2023-04-11T02:13:39.403Z,100228.28
2023-04-11T02:16:18.348Z,100240.47
2023-04-11T02:18:46.390Z,100271.34
2023-04-11T02:21:13.477Z,100287.94
2023-04-11T02:23:40.529Z,100310.81
2023-04-11T02:26:07.923Z,100343.41
2023-04-11T02:28:36.808Z,100343.44
2023-04-11T02:31:04.050Z,100352.28
2023-04-11T02:33:31.260Z,100351.38
2023-04-11T02:35:58.544Z,100361.06
2023-04-11T02:38:25.807Z,100372.53
2023-04-11T02:40:52.831Z,100395.41
2023-04-11T02:43:20.209Z,100399.78
2023-04-11T02:45:47.232Z,100413.84
2023-04-11T02:48:14.636Z,100426.19
2023-04-11T02:50:42.037Z,100436.63
2023-04-11T02:53:09.094Z,100441.94
2023-04-11T02:55:36.227Z,100450.66
2023-04-11T02:58:03.302Z,100455.81
2023-04-11T03:00:30.253Z,100473.44
2023-04-11T03:02:59.174Z,100490.16
2023-04-11T03:05:26.713Z,100499.84
2023-04-11T03:07:54.263Z,100507.72
2023-04-11T03:10:22.042Z,100530.59
2023-04-11T03:12:49.685Z,100535.81
2023-04-11T03:15:17.926Z,100553.47
2023-04-11T03:17:45.894Z,100551.72
2023-04-11T03:20:14.086Z,100559.63
2023-04-11T03:22:41.813Z,100569.22
2023-04-11T03:25:09.526Z,100581.53
2023-04-11T03:27:37.128Z,100597.38
2023-04-11T03:30:05.231Z,100590.28
2023-04-11T03:32:32.596Z,100587.53
2023-04-11T03:35:01.983Z,100603.28
2023-04-11T03:37:28.913Z,100611.16
2023-04-11T03:39:55.929Z,100605.06
2023-04-11T03:42:23.311Z,100591.75
2023-04-11T03:44:50.926Z,100600.59
2023-04-11T03:47:18.579Z,100606.63
2023-04-11T03:49:46.238Z,100599.59
2023-04-11T03:52:15.304Z,100603.97
2023-04-11T03:54:42.645Z,100600.50
2023-04-11T03:57:10.841Z,100588.19
2023-04-11T03:59:38.204Z,100568.91
2023-04-11T04:02:06.291Z,100545.94
2023-04-11T04:04:33.871Z,100498.50
2023-04-11T04:07:01.977Z,100474.78
2023-04-11T04:09:29.499Z,100463.13
2023-04-11T04:11:57.728Z,100429.63
2023-04-11T04:14:24.876Z,100420.84
2023-04-11T04:16:52.006Z,100426.25
2023-04-11T04:19:19.091Z,100437.78
2023-04-11T04:21:46.999Z,100433.31
2023-04-11T04:24:14.284Z,100439.44
2023-04-11T04:26:41.384Z,100457.53
2023-04-11T04:29:10.323Z,100465.38
2023-04-11T04:31:38.364Z,100485.53
2023-04-11T04:34:10.715Z,100497.84
2023-04-11T04:36:49.403Z,100511.97
2023-04-11T04:39:20.447Z,100519.09
2023-04-11T04:41:49.126Z,100531.56
2023-04-11T04:44:16.642Z,100543.78
2023-04-11T04:46:44.373Z,100571.78
2023-04-11T04:49:11.371Z,100570.75
2023-04-11T04:51:40.496Z,100575.50
2023-04-11T04:54:07.555Z,100559.88
2023-04-11T04:56:34.661Z,100554.50
2023-04-11T04:59:01.756Z,100555.31
2023-04-11T05:01:28.820Z,100544.78
2023-04-11T05:04:00.031Z,100540.50
2023-04-11T05:06:32.032Z,100519.34
2023-04-11T05:09:01.574Z,100521.16
2023-04-11T05:11:29.528Z,100514.91
2023-04-11T05:16:42.303Z,100511.31
2023-04-11T05:19:09.919Z,100498.09
2023-04-11T05:21:38.623Z,100484.03
2023-04-11T05:24:06.002Z,100472.50
2023-04-11T05:26:33.103Z,100470.59
2023-04-11T05:29:01.413Z,100475.22
2023-04-11T05:31:31.776Z,100454.06
2023-04-11T05:33:59.062Z,100451.38
2023-04-11T05:36:26.376Z,100438.16
2023-04-11T05:38:53.454Z,100438.19
2023-04-11T05:41:20.467Z,100425.09
2023-04-11T05:43:47.457Z,100426.81
2023-04-11T05:46:14.582Z,100416.97
2023-04-11T05:48:41.706Z,100422.28
2023-04-11T05:51:08.896Z,100427.53
2023-04-11T05:53:36.978Z,100448.66
2023-04-11T05:56:04.486Z,100453.91
2023-04-11T05:58:31.612Z,100448.66
2023-04-11T06:00:59.989Z,100450.28
2023-04-11T06:03:27.533Z,100452.97
2023-04-11T06:05:55.201Z,100445.00
2023-04-11T06:08:22.424Z,100444.97
2023-04-11T06:10:49.721Z,100448.56
2023-04-11T06:13:16.762Z,100453.84
2023-04-11T06:15:44.202Z,100452.09
2023-04-11T06:18:12.648Z,100446.00
2023-04-11T06:20:39.601Z,100429.25
2023-04-11T06:23:06.646Z,100428.38
2023-04-11T06:25:33.722Z,100427.59
2023-04-11T06:28:00.802Z,100426.66
2023-04-11T06:30:28.353Z,100453.09
2023-04-11T06:32:57.074Z,100468.13
2023-04-11T06:35:27.269Z,100454.00
2023-04-11T06:37:54.288Z,100440.00
2023-04-11T06:40:21.298Z,100425.94
2023-04-11T06:42:48.602Z,100406.66
2023-04-11T06:45:15.740Z,100403.19
2023-04-11T06:47:42.706Z,100398.03
2023-04-11T06:50:10.864Z,100370.78
2023-04-11T06:52:38.095Z,100366.34
2023-04-11T06:55:07.342Z,100355.72
2023-04-11T06:57:34.523Z,100358.31
2023-04-11T07:00:02.152Z,100355.75
2023-04-11T07:02:29.909Z,100350.47
2023-04-11T07:04:57.036Z,100347.03
2023-04-11T07:07:24.232Z,100337.34
2023-04-11T07:09:51.307Z,100335.56
2023-04-11T07:12:18.390Z,100317.09
2023-04-11T07:14:45.785Z,100294.31
2023-04-11T07:17:12.732Z,100281.16
2023-04-11T07:19:39.724Z,100270.59
2023-04-11T07:22:06.680Z,100266.22
2023-04-11T07:24:33.672Z,100253.03
2023-04-11T07:27:02.014Z,100224.94
2023-04-11T07:29:29.210Z,100200.28
2023-04-11T07:31:56.233Z,100176.50
2023-04-11T07:34:23.200Z,100158.94
2023-04-11T07:36:50.272Z,100158.09
2023-04-11T07:39:17.362Z,100151.00
2023-04-11T07:41:44.976Z,100136.06
2023-04-11T07:44:11.976Z,100125.53
2023-04-11T07:46:40.381Z,100111.47
2023-04-11T07:49:07.838Z,100107.91
2023-04-11T07:51:35.448Z,100094.78
2023-04-11T07:54:02.517Z,100076.50
2023-04-11T07:56:29.596Z,100019.22
2023-04-11T07:58:58.583Z,100014.81
2023-04-11T08:01:27.034Z,100006.13
2023-04-11T08:03:56.036Z,99975.25
2023-04-11T08:06:23.645Z,100007.91
2023-04-11T08:08:51.403Z,99949.72
2023-04-11T08:11:18.404Z,99943.53
2023-04-11T08:13:45.443Z,99909.13
2023-04-11T08:16:15.250Z,99891.44
2023-04-11T08:18:42.806Z,99890.59
2023-04-11T08:21:12.642Z,99864.19
2023-04-11T08:23:42.301Z,99875.66
2023-04-11T08:26:09.974Z,99895.88
2023-04-11T08:28:37.036Z,99863.22
2023-04-11T08:31:05.717Z,99840.28
2023-04-11T08:33:33.485Z,99804.13
2023-04-11T08:36:00.638Z,99819.13
2023-04-11T08:38:27.873Z,99786.50
2023-04-11T08:40:55.392Z,99763.53
2023-04-11T08:43:22.807Z,99739.69
2023-04-11T08:45:49.982Z,99752.03
2023-04-11T08:48:17.075Z,99710.53
2023-04-11T08:50:44.929Z,99718.38
2023-04-11T08:53:12.425Z,99728.81
2023-04-11T08:55:48.893Z,99711.19
2023-04-11T08:58:16.268Z,99722.53
2023-04-11T09:00:44.199Z,99735.41
2023-04-11T09:03:15.249Z,99658.88
2023-04-11T09:05:47.103Z,99680.19
2023-04-11T09:08:16.625Z,99685.66
2023-04-11T09:10:45.667Z,99698.13
2023-04-11T09:13:25.365Z,99664.63
2023-04-11T09:16:07.620Z,99630.25
2023-04-11T09:18:37.550Z,99708.28
2023-04-11T09:21:08.265Z,99664.91
2023-04-11T09:23:36.450Z,99651.28
2023-04-11T09:26:07.047Z,99612.09
2023-04-11T09:28:50.739Z,99604.88
2023-04-11T09:31:17.701Z,99650.34
2023-04-11T09:33:56.534Z,99604.50
2023-04-11T09:36:27.298Z,99575.50
2023-04-11T09:38:54.484Z,99533.75
2023-04-11T09:41:33.970Z,99569.66
2023-04-11T09:44:01.973Z,99621.53
2023-04-11T09:46:29.266Z,99601.13
2023-04-11T09:48:57.017Z,99630.94
2023-04-11T09:53:56.225Z,99627.03
2023-04-11T09:56:26.810Z,99542.34
2023-04-11T09:58:57.614Z,99510.09
2023-04-11T10:01:25.572Z,99445.72
2023-04-11T10:03:54.276Z,99527.06
2023-04-11T10:06:41.782Z,99494.19
2023-04-11T10:09:13.517Z,99396.66
2023-04-11T10:11:45.071Z,99371.53
2023-04-11T10:14:37.376Z,99460.22
2023-04-11T10:17:23.925Z,99274.06
2023-04-11T10:20:00.868Z,99220.44
2023-04-11T10:22:49.193Z,99193.31
2023-04-11T10:25:18.622Z,99177.16
2023-04-11T10:28:01.405Z,99213.84
2023-04-11T10:31:14.040Z,99209.66
2023-04-11T10:34:21.775Z,99149.78
2023-04-11T10:37:08.308Z,99122.53
2023-04-11T10:39:53.452Z,99231.34
2023-04-11T10:42:49.257Z,99222.66
2023-04-11T10:45:33.377Z,99206.94
2023-04-11T10:48:13.038Z,99244.22
2023-04-11T10:50:45.091Z,99219.59
2023-04-11T10:53:37.093Z,99229.31
2023-04-11T10:56:07.574Z,99228.09
2023-04-11T10:58:37.945Z,99214.75
2023-04-11T11:01:31.242Z,99172.75
2023-04-11T11:04:04.975Z,99210.56
2023-04-11T11:06:40.122Z,99141.59
2023-04-11T11:09:23.735Z,99250.38
2023-04-11T11:12:15.414Z,99069.22
2023-04-11T11:14:47.472Z,99152.00
2023-04-11T11:17:16.568Z,99076.13
2023-04-11T11:19:45.166Z,99043.50
2023-04-11T11:22:25.784Z,99081.69
2023-04-11T11:24:53.378Z,99024.00
2023-04-11T11:27:25.575Z,98945.03
2023-04-11T11:29:53.270Z,98961.13
2023-04-11T11:32:28.519Z,98922.63
2023-04-11T11:34:57.924Z,98974.63
2023-04-11T11:37:25.441Z,98957.53
2023-04-11T11:39:53.033Z,99016.03
2023-04-11T11:42:20.602Z,99070.84
2023-04-11T11:44:48.026Z,98971.94
2023-04-11T11:47:15.837Z,98975.22
2023-04-11T11:49:55.620Z,99023.13
2023-04-11T11:52:40.672Z,99014.88
2023-04-11T11:55:19.984Z,99027.59
2023-04-11T11:57:49.080Z,99017.03
2023-04-11T12:00:26.043Z,99009.69
2023-04-11T12:02:55.293Z,98886.66
2023-04-11T12:05:25.430Z,99034.28
2023-04-11T12:07:58.601Z,98909.69
2023-04-11T12:10:42.351Z,98841.03
2023-04-11T12:13:41.974Z,98930.69
2023-04-11T12:16:09.494Z,98780.03
2023-04-11T12:18:42.166Z,98778.44
2023-04-11T12:21:09.608Z,98648.06
2023-04-11T12:23:37.007Z,98642.50
2023-04-11T12:26:04.454Z,98653.41
2023-04-11T12:28:32.743Z,98682.63
2023-04-11T12:31:00.177Z,98616.97
2023-04-11T12:33:27.593Z,98591.44
2023-04-11T12:35:55.011Z,98600.66
2023-04-11T12:38:22.756Z,98477.91
2023-04-11T12:43:21.297Z,98488.94
2023-04-11T12:45:48.662Z,98599.38
2023-04-11T12:48:16.143Z,98501.75
2023-04-11T12:50:43.526Z,98516.59
2023-04-11T12:53:10.998Z,98470.81
2023-04-11T12:55:38.642Z,98546.19
2023-04-11T12:58:08.112Z,98530.06
2023-04-11T13:00:35.759Z,98332.22
2023-04-11T13:03:04.665Z,98346.06
2023-04-11T13:05:32.638Z,98503.16
2023-04-11T13:07:59.959Z,98422.81
2023-04-11T13:10:27.266Z,98496.03
2023-04-11T13:12:58.685Z,98464.88
2023-04-11T13:15:28.004Z,98353.03
2023-04-11T13:17:55.402Z,98424.88
2023-04-11T13:20:22.944Z,98387.09
2023-04-11T13:22:50.560Z,98316.41
2023-04-11T13:25:18.297Z,98281.81
2023-04-11T13:27:45.647Z,98324.97
2023-04-11T13:30:13.531Z,98063.44
2023-04-11T13:32:41.200Z,98076.78
2023-04-11T13:35:08.942Z,98189.81
2023-04-11T13:37:36.402Z,98266.22
2023-04-11T13:40:06.862Z,98195.66
2023-04-11T13:42:34.556Z,98185.84
2023-04-11T13:45:01.676Z,98179.22
2023-04-11T13:47:29.258Z,98189.09
2023-04-11T13:49:56.679Z,98179.38
2023-04-11T13:52:24.108Z,98149.91
2023-04-11T13:54:51.728Z,97932.97
2023-04-11T13:57:19.195Z,97852.56
2023-04-11T13:59:46.573Z,98153.78
2023-04-11T14:02:13.981Z,98072.94
2023-04-11T14:04:42.004Z,98202.34
2023-04-11T14:07:09.524Z,98057.31
2023-04-11T14:09:37.031Z,98121.13
2023-04-11T14:12:04.467Z,98120.50
2023-04-11T14:14:32.037Z,98081.09
2023-04-11T14:16:59.579Z,98064.63
2023-04-11T14:19:27.004Z,97997.41
2023-04-11T14:21:54.470Z,97972.38
2023-04-11T14:24:22.486Z,97871.53
2023-04-11T14:26:50.461Z,97981.66
2023-04-11T14:29:19.424Z,97847.66
2023-04-11T14:31:47.849Z,97914.94
2023-04-11T14:34:15.505Z,97789.50
2023-04-11T14:36:42.948Z,97872.03
2023-04-11T14:39:10.570Z,97789.75
2023-04-11T14:41:38.006Z,97925.34
2023-04-11T14:44:05.761Z,97877.72
2023-04-11T14:46:33.744Z,97730.66
2023-04-11T14:49:02.047Z,97647.44
2023-04-11T14:51:29.844Z,97607.50
2023-04-11T14:53:57.553Z,97670.78
2023-04-11T14:56:26.547Z,97778.72
2023-04-11T14:58:54.902Z,97681.22
2023-04-11T15:01:22.787Z,97642.53
2023-04-11T15:03:50.783Z,97737.94
2023-04-11T15:06:18.474Z,97652.06
2023-04-11T15:08:45.917Z,97457.91
2023-04-11T15:11:13.441Z,97451.22
2023-04-11T15:13:40.883Z,97477.19
2023-04-11T15:16:08.576Z,97446.13
2023-04-11T15:18:36.175Z,97402.09
2023-04-11T15:21:03.770Z,97452.66
2023-04-11T15:23:31.716Z,97423.47
2023-04-11T15:26:00.853Z,97500.63
2023-04-11T15:28:33.306Z,97537.88
2023-04-11T15:31:01.682Z,97448.41
2023-04-11T15:33:31.305Z,97546.22
2023-04-11T15:36:00.785Z,97506.75
2023-04-11T15:38:29.119Z,97539.09
2023-04-11T15:40:59.478Z,97403.34
2023-04-11T15:43:27.436Z,97347.25
2023-04-11T15:45:55.070Z,97352.69
2023-04-11T15:48:22.547Z,97351.38
2023-04-11T15:50:51.010Z,97274.28
2023-04-11T15:53:18.454Z,97236.53
2023-04-11T15:55:47.469Z,97223.97
2023-04-11T15:58:15.076Z,97285.22
2023-04-11T16:00:43.975Z,97280.09
2023-04-11T16:03:11.376Z,97253.47
2023-04-11T16:05:42.861Z,97264.59
2023-04-11T16:08:11.038Z,97337.66
2023-04-11T16:10:38.459Z,97280.25
2023-04-11T16:13:05.919Z,97168.47
2023-04-11T16:15:33.321Z,97203.25
2023-04-11T16:18:00.910Z,97177.50
2023-04-11T16:20:28.333Z,97309.91
2023-04-11T16:22:55.996Z,97208.41
2023-04-11T16:25:23.473Z,97179.88
2023-04-11T16:27:51.557Z,97204.59
2023-04-11T16:30:19.182Z,97192.38
2023-04-11T16:32:46.998Z,97219.16
2023-04-11T16:35:14.020Z,97207.41
2023-04-11T16:37:41.387Z,97199.50
2023-04-11T16:40:12.469Z,97226.63
2023-04-11T16:42:40.541Z,97187.41
2023-04-11T16:45:09.866Z,97239.34
2023-04-11T16:47:38.080Z,97207.03
2023-04-11T16:50:06.012Z,97202.00
2023-04-11T16:52:33.898Z,97227.63
2023-04-11T16:55:03.177Z,97229.16
2023-04-11T16:57:33.786Z,97271.41
2023-04-11T17:00:11.732Z,97247.41
2023-04-11T17:02:40.481Z,97234.56
2023-04-11T17:05:09.879Z,97251.78
2023-04-11T17:07:38.057Z,97279.78
2023-04-11T17:10:07.186Z,97291.59
2023-04-11T17:12:38.258Z,97331.84
2023-04-11T17:15:09.210Z,97354.25
2023-04-11T17:17:38.219Z,97401.66
2023-04-11T17:20:09.956Z,97409.09
2023-04-11T17:22:39.706Z,97432.88
2023-04-11T17:25:07.386Z,97435.75
2023-04-11T17:27:34.997Z,97455.91
2023-04-11T17:30:02.271Z,97481.09
2023-04-11T17:32:29.468Z,97507.56
2023-04-11T17:34:56.529Z,97518.53
2023-04-11T17:37:24.119Z,97521.88
2023-04-11T17:39:51.808Z,97548.66
2023-04-11T17:42:19.986Z,97589.88
2023-04-11T17:44:47.037Z,97607.66
2023-04-11T17:47:13.999Z,97630.97
2023-04-11T17:49:41.007Z,97665.84
2023-04-11T17:52:08.991Z,97694.88
2023-04-11T17:54:36.484Z,97720.66
2023-04-11T17:57:03.825Z,97734.75
2023-04-11T17:59:31.656Z,97767.13
2023-04-11T18:01:59.517Z,97806.00
2023-04-11T18:04:29.091Z,97819.94
2023-04-11T18:06:58.158Z,97850.88
2023-04-11T18:09:28.149Z,97866.75
2023-04-11T18:11:55.186Z,97880.13
2023-04-11T18:14:23.185Z,97890.09
2023-04-11T18:16:50.902Z,97914.81
2023-04-11T18:19:18.337Z,97921.09
2023-04-11T18:21:45.773Z,97933.66
2023-04-11T18:24:12.866Z,97948.75
2023-04-11T18:26:40.243Z,97973.03
2023-04-11T18:29:07.941Z,97996.06
2023-04-11T18:31:35.678Z,98004.22
2023-04-11T18:34:03.911Z,98014.53
2023-04-11T18:36:33.323Z,98046.16
2023-04-11T18:39:01.029Z,98057.06
2023-04-11T18:41:28.039Z,98074.19
2023-04-11T18:43:55.925Z,98096.56
2023-04-11T18:46:23.374Z,98120.44
2023-04-11T18:48:50.501Z,98146.97
2023-04-11T18:51:17.882Z,98175.97
2023-04-11T18:53:45.128Z,98185.97
2023-04-11T18:56:12.097Z,98205.59
2023-04-11T18:58:45.738Z,98222.72
2023-04-11T19:01:17.003Z,98236.97
2023-04-11T19:03:45.784Z,98253.75
2023-04-11T19:06:13.652Z,98266.88
2023-04-11T19:08:41.662Z,98277.56
2023-04-11T19:11:08.704Z,98296.16
2023-04-11T19:13:36.109Z,98302.50
2023-04-11T19:16:04.049Z,98313.25
2023-04-11T19:18:31.713Z,98328.50
2023-04-11T19:20:59.299Z,98359.56
2023-04-11T19:23:27.141Z,98371.41
2023-04-11T19:25:55.108Z,98404.34
2023-04-11T19:28:22.658Z,98447.38
2023-04-11T19:30:50.582Z,98466.97
2023-04-11T19:33:19.078Z,98490.88
2023-04-11T19:35:46.554Z,98498.09
2023-04-11T19:38:13.977Z,98523.56
2023-04-11T19:40:41.375Z,98526.13
2023-04-11T19:43:09.234Z,98527.84
2023-04-11T19:45:36.819Z,98547.16
2023-04-11T19:48:04.466Z,98545.38
2023-04-11T19:50:32.122Z,98540.16
2023-04-11T19:53:01.521Z,98553.44
2023-04-11T19:55:29.292Z,98566.78
2023-04-11T19:57:56.710Z,98579.16
2023-04-11T20:00:25.419Z,98587.97
2023-04-11T20:02:53.894Z,98601.16
2023-04-11T20:05:22.225Z,98617.84
2023-04-11T20:07:49.681Z,98610.03
2023-04-11T20:10:17.744Z,98608.19
2023-04-11T20:12:45.249Z,98624.06
2023-04-11T20:15:12.665Z,98644.22
2023-04-11T20:17:40.357Z,98633.59
2023-04-11T20:20:09.030Z,98624.81
2023-04-11T20:22:38.451Z,98617.78
2023-04-11T20:25:08.072Z,98630.28
2023-04-11T20:27:35.663Z,98632.13
2023-04-11T20:30:10.642Z,98638.22
2023-04-11T20:32:38.677Z,98639.88
2023-04-11T20:35:08.716Z,98627.69
2023-04-11T20:37:36.370Z,98629.41
2023-04-11T20:40:09.948Z,98626.78
2023-04-11T20:42:46.038Z,98638.38
2023-04-11T20:45:20.677Z,98676.31
2023-04-11T20:47:50.152Z,98693.13
2023-04-11T20:50:19.231Z,98715.16
2023-04-11T20:52:50.643Z,98728.47
2023-04-11T20:55:18.291Z,98748.78
2023-04-11T20:57:45.880Z,98777.34
2023-04-11T21:00:20.416Z,98781.63
2023-04-11T21:02:50.568Z,98816.81
2023-04-11T21:05:22.173Z,98838.69
2023-04-11T21:07:50.138Z,98835.31
2023-04-11T21:10:19.314Z,98844.81
2023-04-11T21:12:51.529Z,98844.69
2023-04-11T21:15:20.084Z,98829.66
2023-04-11T21:17:48.222Z,98830.72
2023-04-11T21:20:19.566Z,98832.59
2023-04-11T21:22:54.995Z,98830.09
2023-04-11T21:25:23.109Z,98835.38
2023-04-11T21:27:50.598Z,98835.34
2023-04-11T21:30:18.023Z,98833.63
2023-04-11T21:32:45.559Z,98828.44
2023-04-11T21:35:13.035Z,98838.19
2023-04-11T21:37:40.523Z,98867.03
2023-04-11T21:40:08.407Z,98863.63
2023-04-11T21:42:35.768Z,98861.09
2023-04-11T21:45:03.327Z,98862.94
2023-04-11T21:47:30.701Z,98884.91
2023-04-11T21:49:58.069Z,98889.25
2023-04-11T21:52:25.532Z,98875.19
2023-04-11T21:54:52.874Z,98883.03
2023-04-11T21:57:20.185Z,98890.94
2023-04-11T21:59:47.611Z,98892.69
2023-04-11T22:02:15.379Z,98872.59
2023-04-11T22:05:01.170Z,98877.03
2023-04-11T22:07:38.344Z,98905.97
2023-04-11T22:10:09.765Z,98911.25
2023-04-11T22:12:37.800Z,98921.81
2023-04-11T22:15:06.901Z,98934.28
2023-04-11T22:17:34.588Z,98947.50
2023-04-11T22:20:01.967Z,98951.94
2023-04-11T22:22:32.353Z,98966.81
2023-04-11T22:25:00.390Z,98962.53
2023-04-11T22:27:28.147Z,98971.25
2023-04-11T22:29:59.920Z,98973.97
2023-04-11T22:32:27.267Z,98960.78
2023-04-11T22:34:54.651Z,98967.81
2023-04-11T22:37:22.045Z,98980.94
2023-04-11T22:39:49.954Z,98992.47
2023-04-11T22:42:17.407Z,98990.75
2023-04-11T22:44:44.812Z,99004.81
2023-04-11T22:47:16.236Z,99014.50
2023-04-11T22:49:45.146Z,99025.06
2023-04-11T22:52:15.736Z,99029.44
2023-04-11T22:54:43.448Z,99028.53
2023-04-11T22:57:11.044Z,99033.81
2023-04-11T22:59:38.417Z,99037.38
2023-04-11T23:02:05.828Z,99042.66
2023-04-11T23:04:33.309Z,99040.06
2023-04-11T23:07:00.699Z,99057.63
2023-04-11T23:09:28.458Z,99078.81
2023-04-11T23:11:55.522Z,99090.25
2023-04-11T23:14:22.960Z,99110.47
2023-04-11T23:16:50.372Z,99139.44
2023-04-11T23:19:18.976Z,99157.00
2023-04-11T23:21:46.372Z,99169.31
2023-04-11T23:24:14.112Z,99183.38
2023-04-11T23:26:41.179Z,99199.16
2023-04-11T23:29:08.659Z,99207.06
2023-04-11T23:31:36.148Z,99211.44
2023-04-11T23:34:03.545Z,99220.22
2023-04-11T23:36:30.882Z,99221.09
2023-04-11T23:38:58.292Z,99210.56
2023-04-11T23:41:25.875Z,99224.63
2023-04-11T23:43:53.203Z,99231.66
2023-04-11T23:46:20.683Z,99231.63
2023-04-11T23:48:48.078Z,99239.56
2023-04-11T23:51:16.026Z,99243.97
2023-04-11T23:53:43.877Z,99261.56
2023-04-11T23:56:11.837Z,99264.19
2023-04-11T23:58:39.178Z,99276.50
